This site, now in its 15th season, is a labour of love and fun from one of Ottawa's most avid time trialists and number crunchers. It adheres to and is permitted by the laws of Canada, promotes the objectives of every bicycle club whose results are shown, and is donated free of charge by myself for your enjoyment and usage. If you would like results from series you ride in to be shown here, give me (celia@drmath.ca) a shout!


Index Page
ATT OTT WTT AATT CFCTT VVVTT
Help resultformat:
Case-sensitive

OBC Open TT Series - 1994-Jul-28 - 15km (Rockliffe Pkwy) (EvtFactor = 0.9420)

Weather (18:00): Mostly Cloudy. Temp.: 24.1C, Humidity: 62%, DewPoint: 16.4C, Wind: ESE 15km/h, Pressure: 99.86kPa, Visibility: 40.2km, Humidex: 29.
Weather (19:00): Mostly Cloudy. Temp.: 23.1C, Humidity: 70%, DewPoint: 17.4C, Wind: SE 11km/h, Pressure: 99.89kPa, Visibility: 32.2km, Humidex: 29.
Weather (20:00): Mostly Cloudy. Temp.: 21.4C, Humidity: 74%, DewPoint: 16.5C, Wind: SE 7km/h, Pressure: 99.93kPa, Visibility: 32.2km.

Send photos with description (when/where/what) of yourself on or off of bike to celia@drmath.ca

 
 

BESTS?
 
1 Ketchum, Bruce --- 19:11 46.916 1/68 OSEM 1/29 1.5604
2 Duggan, Ray --- 20:07 44.739 2/68 OSEM 2/29  
Roy, Patrick OBC 20:07 44.739 2/68 OVAM 1/15 0.9851
4 McCutcheon, Drew --- 20:08 44.702 4/68 OSEM 3/29 0.9754
5 Glover, Jim  OBC 20:19 44.299 5/68 OVAM 2/15 1.0298
6 Parkin, Brian OBC 20:35 43.725 6/68 OVAM 3/15 0.9855
7 Cowan, Norman  OBC 20:37 43.654 7/68 OVAM 4/15 1.0000
8 Simpson, Bob OBC 20:54 43.062 8/68 OVBM 1/9 0.9368
9 Bachman, Paul OBC 21:01 42.823 9/68 OSEM 4/29 0.9417
10 Griffiths, Chris OBC 21:02 42.789 10/68 OVBM 2/9 1.0755
Reinisch, Stephen --- 21:02 42.789 10/68 OSEM 5/29 1.0458
12 Buffa, Alex  OBC 21:19 42.220 12/68 OSEM 6/29 1.0213
13 Timleck, Andrew --- 21:26 41.991 13/68 OSEM 7/29 0.9541
14 Paul, Jim --- 21:29 41.893 14/68 OVAM 5/15 1.1514
15 St-Amour, Pierre OBC 21:30 41.860 15/68 OVAM 6/15 0.9475
16 Burge, Craig  --- 21:32 41.796 16/68 OSEM 8/29 0.9100
Morvan, Jacques  OBC 21:32 41.796 16/68 OVBM 3/9 0.9298
18 Roy, Eric --- 21:34 41.731 18/68 OSEM 9/29 1.0494
19 Hinz, Richard OBC 21:35 41.699 19/68 OVAM 7/15 0.9366
20 Bence, John OBC 21:45 41.379 20/68 OSEM 10/29 0.9749
Moerman, Bram  OBC 21:45 41.379 20/68 OVBM 4/9 0.9569
22 Munden, David --- 21:49 41.253 22/68 OSEM 11/29 1.0162
23 Archambault, Marc --- 21:54 41.096 23/68 OSEM 12/29 0.9331
24 Campbell, Colin  OBC 21:59 40.940 24/68 OSEM 13/29 1.0369
25 Leitch, Brendan --- 22:02 40.847 25/68 OSEM 14/29 1.2236
26 Young, James OBC 22:05 40.755 26/68 OSEM 15/29  
27 Johns, Mike --- 22:08 40.663 27/68 OSEM 16/29 0.8829
28 Murray, Ken --- 22:21 40.268 28/68 OJUM 1/2 0.9668
29 Ayers, Arthur --- 22:29 40.030 29/68 U18M 1/2  
30 Leach, Mike --- 22:37 39.794 30/68 OSEM 17/29 0.9330
Matthews, Paul --- 22:37 39.794 30/68 OVAM 8/15 1.0156
32 Menke, Kurt --- 22:40 39.706 32/68 OSEM 18/29 1.0425
33 Murray, Val OBC 22:43 39.618 33/68 OCAM 1/2 0.9459
34 Ford, Allen --- 22:58 39.187 34/68 OSEM 19/29 1.5949
35 Currie, David --- 23:05 38.989 35/68 OSEM 20/29 1.0329
Revesz, Erika  OBC 23:05 38.989 35/68 OVAF 1/2 0.9657
37 Reid, Jack --- 23:06 38.961 37/68 G64M 1/1 1.0130
38 Franks, Greg OBC 23:07 38.933 38/68 OVAM 9/15 0.9038
39 Pritlove, James --- 23:11 38.821 39/68 OSEM 21/29 1.0108
40 Padilla, Alberto --- 23:15 38.710 40/68 OVAM 10/15 0.9266
41 Hartry, Corey --- 23:18 38.627 41/68 OJUM 2/2 1.0546
42 Yip, Handson --- 23:19 38.599 42/68 OSEM 22/29 1.0216
43 Bachman, Mike OBC 23:24 38.462 43/68 OVCM 1/2 0.8950
44 Roy, Dominique --- 23:25 38.434 44/68 OSEM 23/29 1.0455
45 Martin, Gilles OBC 23:28 38.352 45/68 OSEM 24/29 0.9978
46 Jofriet, Eric --- 23:34 38.190 46/68 OSEM 25/29 1.0107
47 Erskine, James --- 23:36 38.136 47/68 OSEM 26/29 1.0474
48 Aller, Mo OBC 23:40 38.028 48/68 OVCM 2/2 0.9894
49 Hicks, Terry --- 23:45 37.895 49/68 OVAM 11/15 0.9321
Hope, Walter --- 23:45 37.895 49/68 OVAM 11/15 1.0799
51 Tamborine, Don --- 23:46 37.868 51/68 OVBM 5/9 0.9342
52 Hicks, Bob  OBC 23:49 37.789 52/68 OVBM 6/9 0.7103
53 Moxley, Don OBC 23:53 37.683 53/68 OVBM 7/9 0.9486
54 Anderson, Allan OBC 24:00 37.500 54/68 OVAM 13/15 0.9408
55 Hays, Ryan --- 24:01 37.474 55/68 U18M 2/2 0.9529
56 Shadeed, Charles OBC 24:14 37.139 56/68 OVAM 14/15  
57 Presunka, Patty --- 24:28 36.785 57/68 OVAF 2/2 1.1277
58 Gilchrist, Ryan  OBC 24:39 36.511 58/68 OSEM 27/29  
59 FitzGerald, Dennis ABC 24:44 36.388 59/68 OVBM 8/9 1.0831
60 Ajersch, Mary  OBC 24:48 36.290 60/68 OVBF 1/1 0.9820
61 Wennerwald, Henning OBC 25:00 36.000 61/68 OVBM 9/9 0.9782
62 Chapman, Kerry --- 25:12 35.714 62/68 OSEF 1/2 1.0627
63 Weiman, David --- 25:25 35.410 63/68 OSEM 28/29 0.8350
64 James, Peter OBC 25:35 35.179 64/68 OVAM 15/15 0.8854
65 Pepper, Anne --- 25:45 34.951 65/68 OSEF 2/2 0.9616
66 Dawson, Michael OBC 25:50 34.839 66/68 OCAM 2/2 0.8883
s 67 MacDonald, Jackie  --- 28:02 32.105 67/68 OVCF 1/1  
68 Perel, Fredd OBC 30:46 29.252 68/68 OSEM 29/29 0.9583
 
Average Speed of all of the above 68 finishes (1020km in 25:58:52):39.259
>>>Average of the Average Speeds for these 68 finishes39.512<<<
 

The number of data records shown above is 68
The server processing of your query took: 0 wallclock secs ( 0.09 usr + 0.00 sys = 0.09 CPU)

     


Apr 1 (Good Friday) Apr 14 Apr 21 Apr 28
May 3 May 5 May 10 May 12 (22km) May 15 (40km) May 17 May 19 May 24 May 24 (10km) May 26 (cancelled) May 29 (40km)
Jun 2 Jun 5 (38km) Jun 7 Jun 9 Jun 14 (40km) Jun 14 Jun 16 Jun 21 Jun 21 Jun 23 Jun 26 (40km/80km) Jun 28 (40km) Jun 28 Jun 29
Jul 5 Jul 6 Jul 7 Jul 10 (22km) Jul 12 Jul 13 Jul 14 Jul 19 Jul 20 Jul 21 Jul 24 (38km) Jul 26 Jul 27
  Jul 28  
Aug 2 Aug 3 Aug 9 Aug 10 Aug 11 Aug 14 (40km/80km) Aug 16 Aug 17 Aug 18 Aug 20 (22km) Aug 23 Aug 24 Aug 28 (38km) Aug 30 (Invitational) Aug 31
Sep 1 Sep 6 Sep 8 Sep 13 Sep 20 Sep 25 (40km)

OTT Rankings
Best       Best by category
WTT Rankings for OBC Members
5 Best 15km     5 Best 15km by category
OBC Member Best Three 15km Rankings
Overall     by category
OBC BAR Ranking
Overall     by category     Rider "Consistency-Graph"
ABC BAR Ranking
Overall     by category     Rider "Consistency-Graph"
Other years
TT Calculator All TT People All TT events
ABC Home VVV Home
CKAP GOLD MEDAL
Other Links

Please send your comments and suggestions to: Celia McInnis
Copyright © 1998-2011 Celia McInnis. All rights reserved. Links are welcomed.